createdAt,value
2019-06-07T00:00:40.008Z,5.85
2019-06-07T00:01:16.196Z,4.95
2019-06-07T00:01:52.043Z,3.55
2019-06-07T00:02:28.255Z,7.75
2019-06-07T00:03:03.691Z,4.05
2019-06-07T00:03:40.011Z,6.70
2019-06-07T00:04:16.320Z,4.33
2019-06-07T00:04:51.723Z,5.62
2019-06-07T00:05:27.942Z,3.75
2019-06-07T00:06:04.221Z,6.40
2019-06-07T00:06:39.686Z,6.03
2019-06-07T00:07:17.747Z,8.85
2019-06-07T00:07:54.088Z,5.60
2019-06-07T00:08:29.684Z,4.83
2019-06-07T00:09:09.222Z,4.67
2019-06-07T00:09:45.365Z,6.78
2019-06-07T00:10:36.195Z,8.40
2019-06-07T00:10:58.949Z,7.95
2019-06-07T00:11:36.244Z,4.72
2019-06-07T00:12:14.022Z,4.30
2019-06-07T00:12:49.674Z,5.37
2019-06-07T00:13:26.002Z,6.03
2019-06-07T00:14:01.441Z,3.85
2019-06-07T00:14:37.627Z,5.30
2019-06-07T00:15:18.141Z,6.47
2019-06-07T00:15:51.511Z,7.37
2019-06-07T00:16:27.764Z,6.45
2019-06-07T00:17:03.938Z,6.10
2019-06-07T00:17:39.366Z,5.90
2019-06-07T00:18:20.953Z,6.17
2019-06-07T00:18:53.584Z,6.72
2019-06-07T00:19:29.012Z,7.58
2019-06-07T00:20:05.521Z,5.87
2019-06-07T00:20:41.807Z,6.72
2019-06-07T00:21:20.147Z,8.65
2019-06-07T00:22:33.815Z,5.20
2019-06-07T00:23:11.427Z,4.40
2019-06-07T00:23:47.335Z,6.12
2019-06-07T00:24:23.532Z,8.13
2019-06-07T00:24:59.242Z,5.60
2019-06-07T00:25:35.531Z,6.60
2019-06-07T00:26:13.442Z,7.28
2019-06-07T00:26:58.383Z,8.65
2019-06-07T00:27:26.838Z,6.97
2019-06-07T00:28:03.064Z,4.85
2019-06-07T00:28:38.486Z,6.15
2019-06-07T00:29:16.779Z,7.97
2019-06-07T00:29:54.164Z,5.70
2019-06-07T00:30:41.027Z,6.80
2019-06-07T00:31:09.045Z,6.65
2019-06-07T00:31:46.835Z,6.83
2019-06-07T00:32:22.479Z,6.60
2019-06-07T00:32:58.961Z,5.22
2019-06-07T00:33:35.191Z,6.92
2019-06-07T00:34:11.878Z,6.03
2019-06-07T00:34:48.629Z,5.90
2019-06-07T00:35:24.942Z,7.72
2019-06-07T00:36:00.394Z,6.40
2019-06-07T00:36:36.728Z,5.33
2019-06-07T00:37:14.217Z,6.08
2019-06-07T00:37:50.115Z,5.80
2019-06-07T00:38:26.328Z,8.30
2019-06-07T00:39:02.647Z,10.58
2019-06-07T00:39:38.053Z,6.72
2019-06-07T00:40:20.655Z,8.03
2019-06-07T00:40:52.708Z,6.50
2019-06-07T00:41:28.133Z,8.13
2019-06-07T00:42:04.369Z,11.78
2019-06-07T00:42:40.816Z,10.23
2019-06-07T00:43:17.543Z,8.48
2019-06-07T00:43:54.197Z,8.43
2019-06-07T00:44:30.804Z,8.15
2019-06-07T00:45:06.699Z,6.78
2019-06-07T00:45:42.914Z,6.78
2019-06-07T00:46:21.639Z,6.45
2019-06-07T00:46:56.557Z,7.62
2019-06-07T00:47:32.789Z,7.92
2019-06-07T00:48:09.027Z,6.08
2019-06-07T00:48:44.402Z,6.67
2019-06-07T00:49:37.695Z,5.42
2019-06-07T00:49:58.645Z,6.97
2019-06-07T00:50:34.114Z,8.88
2019-06-07T00:51:11.626Z,7.87
2019-06-07T00:51:51.540Z,9.93
2019-06-07T00:53:11.519Z,6.75
2019-06-07T00:53:29.089Z,6.97
2019-06-07T00:53:40.947Z,9.05
2019-06-07T00:54:18.577Z,7.62
2019-06-07T00:54:54.454Z,8.28
2019-06-07T00:55:30.683Z,9.13
2019-06-07T00:56:06.118Z,9.03
2019-06-07T00:56:42.879Z,8.18
2019-06-07T00:57:19.886Z,8.23
2019-06-07T00:57:56.463Z,9.30
2019-06-07T00:58:32.910Z,8.18
2019-06-07T00:59:13.400Z,6.83
2019-06-07T00:59:48.179Z,9.53
2019-06-07T01:00:25.737Z,9.70
2019-06-07T01:01:02.062Z,7.78
2019-06-07T01:01:37.541Z,6.65
2019-06-07T01:02:14.715Z,10.20
2019-06-07T01:02:51.735Z,8.50
2019-06-07T01:03:27.162Z,7.05
2019-06-07T01:04:03.381Z,9.98
2019-06-07T01:04:39.599Z,9.60
2019-06-07T01:05:18.008Z,9.30
2019-06-07T01:05:53.165Z,10.68
2019-06-07T01:06:29.385Z,7.78
2019-06-07T01:07:05.013Z,7.65
2019-06-07T01:07:41.239Z,8.63
2019-06-07T01:08:20.007Z,7.47
2019-06-07T01:08:54.662Z,11.00
2019-06-07T01:09:30.931Z,8.93
2019-06-07T01:10:09.881Z,7.47
2019-06-07T01:10:53.685Z,7.10
2019-06-07T01:11:25.827Z,9.20
2019-06-07T01:12:01.253Z,9.88
2019-06-07T01:12:36.661Z,7.78
2019-06-07T01:13:15.104Z,9.43
2019-06-07T01:13:50.846Z,8.65
2019-06-07T01:14:28.536Z,9.18
2019-06-07T01:15:04.438Z,10.93
2019-06-07T01:15:40.676Z,9.60
2019-06-07T01:16:16.284Z,9.73
2019-06-07T01:17:01.300Z,9.20
2019-06-07T01:17:43.753Z,8.10
2019-06-07T01:18:37.047Z,11.45
2019-06-07T01:18:51.174Z,8.60
2019-06-07T01:19:27.576Z,12.50
2019-06-07T01:20:02.473Z,14.07
2019-06-07T01:20:38.737Z,12.05
2019-06-07T01:21:15.933Z,8.75
2019-06-07T01:21:52.198Z,9.60
2019-06-07T01:22:29.370Z,11.43
2019-06-07T01:23:51.868Z,11.78
2019-06-07T01:24:24.469Z,11.73
2019-06-07T01:24:58.945Z,9.63
2019-06-07T01:25:34.378Z,9.25
2019-06-07T01:26:10.937Z,11.48
2019-06-07T01:26:47.161Z,11.08
2019-06-07T01:27:25.380Z,10.43
2019-06-07T01:28:00.697Z,9.15
2019-06-07T01:28:36.856Z,10.50
2019-06-07T01:29:12.362Z,12.60
2019-06-07T01:29:48.560Z,12.53
2019-06-07T01:30:26.701Z,12.25
2019-06-07T01:31:02.269Z,11.22
2019-06-07T01:31:38.543Z,13.35
2019-06-07T01:32:17.469Z,12.82
2019-06-07T01:32:51.989Z,10.70
2019-06-07T01:33:49.491Z,9.28
2019-06-07T01:34:06.130Z,9.45
2019-06-07T01:34:41.591Z,10.55
2019-06-07T01:35:20.229Z,11.28
2019-06-07T01:35:55.838Z,10.55
2019-06-07T01:36:31.540Z,11.45
2019-06-07T01:37:07.814Z,11.60
2019-06-07T01:37:44.037Z,13.58
2019-06-07T01:38:22.885Z,10.70
2019-06-07T01:38:57.463Z,10.43
2019-06-07T01:39:33.661Z,12.35
2019-06-07T01:40:09.728Z,12.68
2019-06-07T01:40:45.982Z,11.28
2019-06-07T01:41:25.354Z,10.15
2019-06-07T01:41:59.483Z,11.22
2019-06-07T01:42:35.987Z,10.82
2019-06-07T01:43:12.288Z,13.20
2019-06-07T01:43:47.738Z,9.93
2019-06-07T01:44:27.752Z,10.58
2019-06-07T01:45:02.141Z,11.78
2019-06-07T01:45:37.636Z,13.00
2019-06-07T01:46:13.890Z,9.43
2019-06-07T01:46:50.130Z,12.75
2019-06-07T01:47:29.343Z,10.08
2019-06-07T01:48:03.549Z,10.38
2019-06-07T01:48:49.441Z,11.40
2019-06-07T01:49:19.708Z,10.78
2019-06-07T01:49:55.953Z,14.20
2019-06-07T01:50:32.385Z,10.40
2019-06-07T01:51:07.787Z,10.75
2019-06-07T01:51:44.001Z,13.10
2019-06-07T01:52:23.580Z,11.85
2019-06-07T01:52:57.436Z,13.78
2019-06-07T01:53:33.702Z,11.95
2019-06-07T01:54:49.327Z,14.35
2019-06-07T01:54:58.037Z,10.28
2019-06-07T01:55:29.207Z,12.63
2019-06-07T01:56:02.988Z,11.90
2019-06-07T01:56:38.425Z,14.10
2019-06-07T01:57:31.079Z,11.85
2019-06-07T01:57:52.638Z,14.93
2019-06-07T01:58:29.258Z,12.93
2019-06-07T01:59:05.537Z,14.07
2019-06-07T01:59:41.778Z,13.68
2019-06-07T02:00:17.781Z,14.85
2019-06-07T02:00:54.009Z,13.85
2019-06-07T02:01:35.294Z,13.25
2019-06-07T02:02:07.427Z,15.70
2019-06-07T02:02:43.684Z,18.20
2019-06-07T02:03:22.331Z,13.50
2019-06-07T02:03:57.307Z,12.95
2019-06-07T02:04:33.887Z,16.35
2019-06-07T02:05:10.613Z,16.60
2019-06-07T02:05:46.313Z,16.87
2019-06-07T02:06:27.062Z,16.27
2019-06-07T02:07:00.557Z,15.32
2019-06-07T02:07:36.087Z,17.48
2019-06-07T02:08:12.543Z,13.83
2019-06-07T02:08:48.801Z,13.90
2019-06-07T02:09:28.433Z,13.93
2019-06-07T02:10:02.368Z,14.10
2019-06-07T02:10:38.606Z,14.33
2019-06-07T02:11:14.073Z,14.63
2019-06-07T02:11:50.390Z,14.55
2019-06-07T02:12:35.892Z,14.90
2019-06-07T02:13:03.854Z,14.15
2019-06-07T02:13:40.081Z,17.73
2019-06-07T02:14:16.391Z,13.00
2019-06-07T02:14:52.050Z,14.10
2019-06-07T02:15:36.137Z,14.53
2019-06-07T02:16:07.142Z,14.30
2019-06-07T02:16:42.777Z,14.70
2019-06-07T02:17:20.364Z,14.43
2019-06-07T02:17:57.268Z,14.85
2019-06-07T02:18:34.922Z,13.68
2019-06-07T02:19:10.933Z,14.33
2019-06-07T02:19:47.382Z,13.62
2019-06-07T02:20:23.869Z,13.50
2019-06-07T02:21:00.790Z,14.23
2019-06-07T02:21:37.410Z,14.05
2019-06-07T02:22:12.881Z,15.05
2019-06-07T02:22:49.144Z,15.08
2019-06-07T02:23:28.257Z,15.50
2019-06-07T02:24:03.138Z,14.28
2019-06-07T02:24:39.451Z,14.80
2019-06-07T02:25:37.251Z,14.18
2019-06-07T02:25:54.822Z,14.65
2019-06-07T02:26:32.660Z,15.38
2019-06-07T02:27:09.338Z,15.38
2019-06-07T02:27:44.782Z,16.75
2019-06-07T02:28:30.061Z,16.77
2019-06-07T02:28:59.071Z,16.37
2019-06-07T02:29:34.656Z,15.68
2019-06-07T02:31:00.109Z,16.30
2019-06-07T02:31:36.274Z,16.25
2019-06-07T02:32:05.802Z,14.85
2019-06-07T02:32:42.300Z,16.48
2019-06-07T02:33:18.068Z,16.50
2019-06-07T02:33:54.297Z,17.48
2019-06-07T02:34:37.967Z,16.12
2019-06-07T02:35:09.181Z,15.88
2019-06-07T02:35:45.631Z,16.02
2019-06-07T02:36:25.602Z,17.60
2019-06-07T02:36:59.252Z,17.20
2019-06-07T02:37:36.812Z,17.55
2019-06-07T02:38:13.700Z,16.62
2019-06-07T02:38:49.202Z,15.85
2019-06-07T02:39:28.768Z,16.37
2019-06-07T02:40:05.490Z,17.10
2019-06-07T02:40:41.052Z,17.35
2019-06-07T02:41:17.335Z,16.20
2019-06-07T02:41:53.571Z,16.70
2019-06-07T02:42:39.135Z,17.40
2019-06-07T02:43:07.918Z,17.42
2019-06-07T02:43:44.269Z,16.45
2019-06-07T02:44:19.635Z,16.60
2019-06-07T02:44:55.964Z,18.10
2019-06-07T02:45:37.611Z,16.35
2019-06-07T02:46:34.331Z,16.07
2019-06-07T02:47:01.900Z,16.50
2019-06-07T02:47:38.542Z,16.57
2019-06-07T02:48:14.612Z,17.62
2019-06-07T02:48:50.837Z,18.07
2019-06-07T02:49:31.303Z,18.05
2019-06-07T02:50:05.110Z,17.90
2019-06-07T02:50:41.611Z,19.15
2019-06-07T02:51:18.020Z,18.37
2019-06-07T02:51:53.788Z,18.75
2019-06-07T02:52:34.414Z,17.07
2019-06-07T02:53:08.281Z,16.95
2019-06-07T02:53:43.704Z,19.42
2019-06-07T02:54:19.962Z,17.37
2019-06-07T02:54:56.222Z,17.82
2019-06-07T02:55:37.177Z,17.40
2019-06-07T02:56:37.678Z,18.65
2019-06-07T02:56:58.111Z,18.15
2019-06-07T02:57:29.326Z,17.62
2019-06-07T02:58:04.103Z,17.37
2019-06-07T02:58:41.829Z,17.80
2019-06-07T02:59:17.622Z,18.67
2019-06-07T03:00:07.525Z,19.20
2019-06-07T03:01:04.045Z,18.62
2019-06-07T03:01:25.485Z,18.30
2019-06-07T03:02:03.077Z,20.27
2019-06-07T03:02:41.486Z,17.55
2019-06-07T03:03:18.021Z,20.25
2019-06-07T03:03:54.431Z,20.10
2019-06-07T03:04:36.783Z,20.62
2019-06-07T03:05:08.381Z,20.55
2019-06-07T03:05:46.989Z,19.87
2019-06-07T03:06:23.894Z,19.65
2019-06-07T03:07:01.798Z,20.02
2019-06-07T03:07:44.842Z,21.23
2019-06-07T03:08:19.215Z,21.97
2019-06-07T03:08:55.762Z,21.07
2019-06-07T03:09:36.942Z,19.85
2019-06-07T03:10:13.417Z,20.60
2019-06-07T03:10:50.418Z,19.77
2019-06-07T03:11:31.698Z,20.40
2019-06-07T03:12:08.754Z,19.57
2019-06-07T03:12:48.085Z,20.17
2019-06-07T03:13:28.920Z,20.40
2019-06-07T03:14:06.123Z,19.27
2019-06-07T03:14:42.445Z,19.90
2019-06-07T03:15:32.773Z,19.52
2019-06-07T03:15:57.825Z,20.00
2019-06-07T03:16:43.658Z,21.25
2019-06-07T03:17:55.997Z,19.48
2019-06-07T03:18:53.412Z,20.20
2019-06-07T03:19:37.867Z,20.32
2019-06-07T03:20:14.212Z,19.48
2019-06-07T03:21:05.083Z,19.50
2019-06-07T03:21:31.479Z,21.25
2019-06-07T03:22:08.211Z,20.30
2019-06-07T03:22:45.811Z,20.48
2019-06-07T03:23:26.176Z,21.97
2019-06-07T03:24:02.646Z,22.93
2019-06-07T03:24:42.022Z,21.60
2019-06-07T03:25:16.295Z,22.00
2019-06-07T03:25:55.881Z,21.12
2019-06-07T03:26:35.740Z,20.82
2019-06-07T03:27:50.270Z,20.30
2019-06-07T03:28:27.637Z,20.90
2019-06-07T03:29:03.133Z,20.75
2019-06-07T03:29:41.200Z,21.80
2019-06-07T03:31:02.135Z,21.45
2019-06-07T03:31:41.678Z,22.82
2019-06-07T03:32:10.836Z,23.73
2019-06-07T03:32:48.279Z,21.55
2019-06-07T03:33:24.217Z,22.85
2019-06-07T03:34:00.597Z,22.17
2019-06-07T03:34:42.750Z,23.40
2019-06-07T03:35:15.336Z,22.73
2019-06-07T03:35:51.550Z,23.00
2019-06-07T03:36:27.540Z,21.93
2019-06-07T03:37:03.806Z,22.93
2019-06-07T03:37:42.685Z,22.07
2019-06-07T03:38:17.178Z,21.35
2019-06-07T03:38:53.419Z,22.05
2019-06-07T03:39:31.241Z,22.05
2019-06-07T03:40:07.658Z,22.02
2019-06-07T03:40:43.904Z,21.77
2019-06-07T03:41:20.187Z,21.97
2019-06-07T03:42:06.265Z,22.93
2019-06-07T03:42:34.855Z,22.85
2019-06-07T03:43:11.735Z,23.40
2019-06-07T03:43:47.182Z,23.18
2019-06-07T03:44:23.400Z,23.30
2019-06-07T03:44:59.920Z,23.35
2019-06-07T03:45:40.115Z,23.35
2019-06-07T03:46:13.370Z,23.12
2019-06-07T03:46:49.664Z,23.50
2019-06-07T03:47:25.128Z,22.50
2019-06-07T03:48:01.638Z,21.90
2019-06-07T03:48:41.007Z,23.92
2019-06-07T03:49:14.998Z,21.90
2019-06-07T03:49:51.430Z,22.55
2019-06-07T03:50:31.869Z,22.07
2019-06-07T03:51:23.675Z,22.80
2019-06-07T03:51:44.022Z,22.65
2019-06-07T03:52:20.552Z,20.32
2019-06-07T03:52:56.015Z,22.27
2019-06-07T03:53:33.949Z,22.02
2019-06-07T03:54:10.220Z,22.02
2019-06-07T03:54:45.747Z,21.50
2019-06-07T03:55:22.068Z,22.10
2019-06-07T03:55:59.864Z,22.02
2019-06-07T03:56:36.023Z,23.30
2019-06-07T03:57:13.357Z,21.07
2019-06-07T03:58:31.838Z,21.45
2019-06-07T03:59:04.748Z,22.58
2019-06-07T03:59:41.636Z,22.75
2019-06-07T04:00:17.278Z,21.68
2019-06-07T04:00:53.636Z,21.10
2019-06-07T04:01:30.325Z,21.85
2019-06-07T04:02:07.067Z,21.87
2019-06-07T04:02:43.314Z,21.25
2019-06-07T04:03:33.302Z,21.17
2019-06-07T04:03:56.772Z,21.50
2019-06-07T04:04:35.002Z,21.15
2019-06-07T04:05:11.033Z,20.30
2019-06-07T04:05:46.761Z,19.80
2019-06-07T04:06:23.136Z,20.65
2019-06-07T04:06:59.369Z,20.12
2019-06-07T04:07:36.950Z,20.97
2019-06-07T04:08:13.101Z,19.23
2019-06-07T04:08:49.400Z,19.40
2019-06-07T04:09:24.848Z,19.45
2019-06-07T04:10:01.076Z,20.43
2019-06-07T04:10:55.761Z,19.75
2019-06-07T04:11:14.926Z,21.00
2019-06-07T04:11:51.232Z,20.65
2019-06-07T04:12:28.534Z,19.60
2019-06-07T04:13:04.045Z,20.00
2019-06-07T04:13:42.894Z,20.37
2019-06-07T04:14:18.311Z,19.62
2019-06-07T04:14:53.784Z,19.30
2019-06-07T04:15:30.667Z,19.32
2019-06-07T04:16:08.648Z,19.23
2019-06-07T04:16:45.028Z,19.70
2019-06-07T04:17:21.389Z,19.95
2019-06-07T04:18:02.356Z,21.62
2019-06-07T04:18:36.429Z,20.92
2019-06-07T04:19:12.761Z,20.85
2019-06-07T04:19:49.012Z,20.43
2019-06-07T04:20:24.777Z,19.77
2019-06-07T04:21:01.004Z,19.85
2019-06-07T04:21:42.351Z,19.77
2019-06-07T04:22:14.554Z,20.25
2019-06-07T04:22:50.831Z,20.75
2019-06-07T04:23:29.947Z,19.48
2019-06-07T04:24:04.210Z,19.92
2019-06-07T04:24:42.084Z,20.75
2019-06-07T04:25:18.526Z,22.30
2019-06-07T04:25:54.020Z,20.60
2019-06-07T04:26:31.351Z,21.42
2019-06-07T04:27:08.218Z,20.97
2019-06-07T04:27:43.658Z,21.75
2019-06-07T04:28:19.904Z,22.05
2019-06-07T04:29:31.732Z,21.65
2019-06-07T04:29:47.837Z,20.85
2019-06-07T04:30:12.029Z,20.72
2019-06-07T04:30:48.487Z,19.45
2019-06-07T04:31:23.918Z,21.20
2019-06-07T04:32:00.144Z,19.98
2019-06-07T04:32:39.446Z,19.37
2019-06-07T04:33:14.794Z,20.92
2019-06-07T04:33:51.812Z,20.23
2019-06-07T04:34:29.279Z,20.97
2019-06-07T04:35:05.581Z,21.52
2019-06-07T04:35:43.490Z,20.88
2019-06-07T04:36:39.400Z,20.45
2019-06-07T04:36:59.743Z,20.62
2019-06-07T04:37:39.684Z,21.20
2019-06-07T04:38:16.054Z,19.80
2019-06-07T04:38:53.741Z,20.70
2019-06-07T04:39:34.020Z,20.97
2019-06-07T04:40:10.303Z,20.20
2019-06-07T04:40:47.281Z,20.35
2019-06-07T04:41:28.662Z,19.57
2019-06-07T04:42:05.230Z,18.75
2019-06-07T04:42:45.355Z,18.23
2019-06-07T04:43:21.048Z,19.20
2019-06-07T04:44:00.145Z,21.42
2019-06-07T04:44:41.089Z,21.02
2019-06-07T04:45:33.623Z,19.00
2019-06-07T04:45:56.542Z,20.48
2019-06-07T04:46:35.226Z,20.10
2019-06-07T04:47:15.610Z,19.82
2019-06-07T04:47:53.590Z,19.50
2019-06-07T04:48:33.453Z,18.17
2019-06-07T04:49:09.731Z,19.85
2019-06-07T04:49:49.584Z,19.12
2019-06-07T04:50:25.141Z,18.92
2019-06-07T04:51:04.672Z,18.35
2019-06-07T04:51:42.396Z,17.67
2019-06-07T04:52:18.455Z,18.20
2019-06-07T04:52:54.713Z,17.25
2019-06-07T04:53:35.304Z,17.80
2019-06-07T04:54:08.160Z,18.23
2019-06-07T04:54:45.965Z,19.65
2019-06-07T04:55:22.409Z,19.73
2019-06-07T04:55:58.195Z,18.45
2019-06-07T04:56:38.477Z,18.90
2019-06-07T04:57:12.396Z,18.12
2019-06-07T04:57:47.861Z,18.65
2019-06-07T04:58:24.099Z,17.98
2019-06-07T04:59:00.381Z,18.60
2019-06-07T05:00:46.916Z,17.80
2019-06-07T05:00:59.294Z,18.15
2019-06-07T05:01:31.114Z,17.55
2019-06-07T05:02:08.009Z,17.42
2019-06-07T05:02:44.482Z,18.87
2019-06-07T05:03:19.911Z,18.80
2019-06-07T05:03:56.324Z,18.10
2019-06-07T05:04:33.208Z,17.35
2019-06-07T05:05:10.059Z,18.62
2019-06-07T05:05:46.513Z,17.80
2019-06-07T05:06:24.150Z,16.95
2019-06-07T05:07:00.063Z,17.62
2019-06-07T05:07:37.820Z,17.75
2019-06-07T05:08:27.621Z,18.52
2019-06-07T05:08:51.925Z,17.70
2019-06-07T05:09:28.190Z,17.67
2019-06-07T05:10:04.530Z,16.25
2019-06-07T05:10:43.457Z,17.15
2019-06-07T05:11:18.515Z,17.62
2019-06-07T05:11:55.074Z,17.50
2019-06-07T05:12:32.538Z,16.77
2019-06-07T05:13:08.649Z,17.75
2019-06-07T05:13:44.949Z,17.10
2019-06-07T05:14:22.624Z,17.98
2019-06-07T05:14:58.886Z,17.67
2019-06-07T05:15:38.994Z,16.00
2019-06-07T05:16:12.766Z,16.95
2019-06-07T05:16:49.090Z,17.65
2019-06-07T05:17:25.309Z,17.32
2019-06-07T05:18:00.780Z,16.95
2019-06-07T05:18:40.181Z,17.05
2019-06-07T05:19:15.061Z,16.27
2019-06-07T05:19:51.782Z,16.23
2019-06-07T05:20:28.275Z,17.45
2019-06-07T05:21:04.610Z,16.80
2019-06-07T05:22:01.538Z,17.10
2019-06-07T05:22:18.358Z,16.82
2019-06-07T05:22:54.561Z,17.10
2019-06-07T05:24:02.575Z,16.55
2019-06-07T05:24:10.626Z,16.97
2019-06-07T05:24:46.204Z,17.30
2019-06-07T05:25:21.624Z,16.85
2019-06-07T05:25:57.883Z,16.25
2019-06-07T05:26:38.519Z,16.87
2019-06-07T05:27:11.343Z,16.80
2019-06-07T05:27:47.695Z,18.23
2019-06-07T05:28:24.068Z,17.27
2019-06-07T05:28:59.578Z,16.97
2019-06-07T05:29:38.355Z,16.82
2019-06-07T05:30:50.983Z,16.87
2019-06-07T05:31:05.236Z,16.85
2019-06-07T05:31:35.288Z,19.02
2019-06-07T05:32:09.744Z,17.25
2019-06-07T05:32:46.303Z,18.42
2019-06-07T05:33:22.628Z,16.73
2019-06-07T05:33:58.858Z,17.70
2019-06-07T05:34:36.267Z,17.92
2019-06-07T05:35:14.778Z,18.15
2019-06-07T05:35:51.154Z,17.23
2019-06-07T05:36:26.732Z,17.62
2019-06-07T05:37:11.593Z,16.75
2019-06-07T05:37:45.628Z,18.65
2019-06-07T05:38:18.474Z,17.80
2019-06-07T05:38:54.780Z,17.70
2019-06-07T05:39:32.093Z,18.48
2019-06-07T05:40:09.180Z,18.82
2019-06-07T05:40:48.831Z,17.52
2019-06-07T05:41:24.561Z,19.02
2019-06-07T05:42:00.047Z,17.80
2019-06-07T05:42:40.229Z,19.23
2019-06-07T05:43:26.530Z,17.37
2019-06-07T05:44:12.172Z,17.17
2019-06-07T05:44:45.172Z,17.75
2019-06-07T05:45:24.009Z,16.80
2019-06-07T05:45:59.490Z,17.15
2019-06-07T05:46:38.582Z,16.93
2019-06-07T05:47:13.670Z,18.17
2019-06-07T05:47:51.129Z,17.07
2019-06-07T05:48:27.188Z,17.62
2019-06-07T05:49:03.481Z,16.55
2019-06-07T05:49:41.669Z,16.52
2019-06-07T05:50:38.529Z,16.70
2019-06-07T05:50:57.481Z,16.60
2019-06-07T05:51:32.352Z,16.70
2019-06-07T05:52:08.605Z,16.62
2019-06-07T05:52:47.473Z,16.82
2019-06-07T05:53:22.107Z,15.20
2019-06-07T05:53:58.572Z,15.13
2019-06-07T05:54:36.085Z,16.02
2019-06-07T05:55:12.035Z,15.43
2019-06-07T05:55:48.603Z,15.08
2019-06-07T05:56:24.893Z,15.13
2019-06-07T05:57:00.364Z,14.75
2019-06-07T05:57:40.578Z,14.95
2019-06-07T05:58:14.923Z,14.70
2019-06-07T05:58:50.402Z,15.03
2019-06-07T05:59:27.117Z,14.63
2019-06-07T06:00:03.372Z,14.55
2019-06-07T06:00:40.810Z,14.23
2019-06-07T06:02:02.730Z,14.50
2019-06-07T06:02:38.901Z,14.65
2019-06-07T06:03:11.841Z,14.70
2019-06-07T06:03:48.565Z,16.48
2019-06-07T06:04:24.109Z,15.00
2019-06-07T06:05:00.467Z,14.18
2019-06-07T06:05:42.160Z,14.53
2019-06-07T06:06:13.994Z,13.05
2019-06-07T06:06:50.544Z,14.05
2019-06-07T06:07:26.998Z,13.15
2019-06-07T06:08:02.478Z,14.30
2019-06-07T06:08:41.387Z,13.72
2019-06-07T06:09:16.694Z,13.13
2019-06-07T06:09:52.150Z,12.70
2019-06-07T06:10:28.454Z,12.75
2019-06-07T06:11:04.730Z,12.33
2019-06-07T06:11:51.611Z,13.55
2019-06-07T06:12:34.237Z,13.50
2019-06-07T06:12:56.572Z,12.30
2019-06-07T06:13:32.047Z,12.75
2019-06-07T06:14:08.679Z,14.47
2019-06-07T06:14:46.866Z,12.30
2019-06-07T06:15:41.628Z,12.13
2019-06-07T06:16:02.384Z,13.00
2019-06-07T06:16:39.773Z,12.85
2019-06-07T06:17:15.800Z,12.28
2019-06-07T06:17:53.913Z,12.70
2019-06-07T06:18:30.123Z,13.40
2019-06-07T06:19:05.581Z,12.55
2019-06-07T06:19:47.448Z,12.50
2019-06-07T06:20:20.170Z,13.70
2019-06-07T06:21:15.624Z,11.57
2019-06-07T06:21:33.659Z,11.90
2019-06-07T06:22:09.957Z,12.50
2019-06-07T06:22:50.591Z,11.63
2019-06-07T06:23:25.009Z,13.22
2019-06-07T06:24:01.547Z,12.43
2019-06-07T06:24:37.667Z,12.03
2019-06-07T06:25:33.456Z,13.40
2019-06-07T06:25:57.581Z,11.75
2019-06-07T06:26:32.028Z,12.13
2019-06-07T06:27:40.746Z,12.80
2019-06-07T06:28:24.443Z,11.57
2019-06-07T06:29:00.736Z,11.63
2019-06-07T06:29:38.675Z,11.57
2019-06-07T06:30:16.399Z,10.75
2019-06-07T06:30:52.872Z,10.58
2019-06-07T06:31:29.505Z,11.63
2019-06-07T06:32:52.739Z,10.85
2019-06-07T06:33:33.458Z,11.12
2019-06-07T06:33:58.609Z,13.88
2019-06-07T06:34:39.416Z,10.85
2019-06-07T06:35:13.289Z,10.70
2019-06-07T06:35:50.864Z,10.82
2019-06-07T06:36:26.898Z,10.00
2019-06-07T06:37:03.190Z,10.93
2019-06-07T06:37:41.929Z,10.10
2019-06-07T06:38:16.772Z,10.68
2019-06-07T06:38:53.136Z,10.43
2019-06-07T06:39:28.617Z,9.33
2019-06-07T06:40:05.541Z,10.23
2019-06-07T06:40:45.061Z,9.50
2019-06-07T06:41:19.448Z,10.85
2019-06-07T06:42:03.233Z,10.40
2019-06-07T06:42:34.381Z,9.70
2019-06-07T06:43:10.801Z,10.88
2019-06-07T06:43:50.318Z,10.78
2019-06-07T06:44:26.134Z,12.65
2019-06-07T06:45:01.674Z,10.63
2019-06-07T06:45:38.367Z,10.55
2019-06-07T06:46:31.818Z,10.15
2019-06-07T06:46:57.549Z,11.15
2019-06-07T06:47:30.226Z,10.28
2019-06-07T06:48:06.535Z,10.75
2019-06-07T06:48:47.401Z,10.78
2019-06-07T06:49:20.395Z,9.90
2019-06-07T06:49:57.518Z,10.13
2019-06-07T06:50:33.546Z,11.10
2019-06-07T06:51:09.833Z,10.03
2019-06-07T06:51:50.074Z,10.20
2019-06-07T06:52:23.295Z,10.45
2019-06-07T06:53:01.166Z,9.78
2019-06-07T06:53:40.044Z,10.75
2019-06-07T06:54:14.715Z,10.10
2019-06-07T06:55:00.038Z,10.20
2019-06-07T06:55:31.380Z,10.60
2019-06-07T06:56:06.904Z,10.30
2019-06-07T06:56:45.150Z,9.83
2019-06-07T06:57:21.208Z,9.95
2019-06-07T06:57:56.746Z,11.88
2019-06-07T06:59:18.774Z,10.65
2019-06-07T06:59:37.221Z,10.53
2019-06-07T06:59:52.067Z,9.48
2019-06-07T07:00:53.861Z,10.40
2019-06-07T07:01:25.256Z,9.80
2019-06-07T07:02:01.742Z,9.60
2019-06-07T07:03:27.076Z,9.40
2019-06-07T07:03:57.240Z,9.45
2019-06-07T07:04:12.353Z,9.53
2019-06-07T07:04:38.399Z,9.05
2019-06-07T07:05:15.547Z,9.40
2019-06-07T07:05:54.466Z,8.93
2019-06-07T07:06:31.601Z,9.03
2019-06-07T07:07:07.810Z,9.78
2019-06-07T07:07:45.171Z,9.23
2019-06-07T07:08:22.933Z,9.23
2019-06-07T07:09:00.611Z,11.22
2019-06-07T07:09:37.160Z,9.48
2019-06-07T07:10:14.101Z,10.00
2019-06-07T07:10:53.183Z,9.60
2019-06-07T07:11:28.283Z,8.70
2019-06-07T07:12:11.745Z,9.23
2019-06-07T07:12:45.421Z,9.23
2019-06-07T07:13:21.754Z,9.38
2019-06-07T07:13:59.119Z,9.10
2019-06-07T07:14:35.470Z,9.50
2019-06-07T07:15:16.843Z,8.83
2019-06-07T07:15:57.935Z,9.13
2019-06-07T07:16:31.134Z,8.50
2019-06-07T07:17:06.681Z,8.75
2019-06-07T07:17:53.779Z,9.30
2019-06-07T07:18:21.571Z,9.15
2019-06-07T07:18:57.329Z,9.93
2019-06-07T07:19:33.587Z,8.43
2019-06-07T07:20:09.825Z,9.13
2019-06-07T07:20:47.580Z,8.43
2019-06-07T07:21:23.623Z,8.60
2019-06-07T07:21:59.894Z,9.13
2019-06-07T07:22:35.370Z,9.03
2019-06-07T07:23:11.717Z,9.10
2019-06-07T07:24:14.664Z,8.48
2019-06-07T07:24:25.310Z,8.25
2019-06-07T07:25:01.878Z,8.43
2019-06-07T07:25:38.228Z,9.28
2019-06-07T07:26:13.768Z,8.45
2019-06-07T07:26:53.154Z,9.28
2019-06-07T07:27:28.257Z,8.83
2019-06-07T07:28:03.864Z,9.43
2019-06-07T07:28:40.110Z,11.63
2019-06-07T07:29:16.406Z,9.43
2019-06-07T07:30:10.222Z,9.55
2019-06-07T07:30:47.378Z,9.25
2019-06-07T07:31:23.951Z,9.88
2019-06-07T07:31:59.862Z,8.93
2019-06-07T07:32:37.378Z,8.85
2019-06-07T07:33:16.292Z,9.40
2019-06-07T07:34:29.059Z,9.65
2019-06-07T07:34:35.698Z,9.35
2019-06-07T07:35:08.464Z,10.72
2019-06-07T07:36:07.624Z,9.40
2019-06-07T07:36:38.990Z,10.35
2019-06-07T07:37:01.165Z,9.90
2019-06-07T07:37:36.628Z,10.18
2019-06-07T07:38:12.884Z,9.95
2019-06-07T07:38:55.680Z,9.93
2019-06-07T07:39:26.336Z,9.53
2019-06-07T07:40:54.901Z,9.00
2019-06-07T07:41:02.268Z,9.43
2019-06-07T07:41:18.384Z,9.78
2019-06-07T07:42:18.069Z,10.60
2019-06-07T07:42:32.698Z,8.68
2019-06-07T07:43:08.357Z,9.18
2019-06-07T07:43:51.832Z,9.23
2019-06-07T07:44:24.126Z,11.90
2019-06-07T07:44:59.821Z,9.13
2019-06-07T07:45:36.125Z,9.63
2019-06-07T07:46:29.672Z,9.05
2019-06-07T07:46:52.283Z,9.05
2019-06-07T07:47:26.975Z,10.65
2019-06-07T07:48:15.411Z,8.33
2019-06-07T07:48:41.216Z,8.48
2019-06-07T07:49:17.547Z,9.78
2019-06-07T07:49:58.529Z,9.30
2019-06-07T07:50:31.110Z,8.85
2019-06-07T07:51:07.525Z,13.48
2019-06-07T07:51:44.065Z,10.20
2019-06-07T07:52:20.398Z,9.38
2019-06-07T07:53:00.709Z,8.85
2019-06-07T07:53:48.613Z,8.95
2019-06-07T07:54:13.262Z,8.95
2019-06-07T07:54:52.042Z,8.93
2019-06-07T07:55:28.102Z,8.13
2019-06-07T07:56:05.153Z,8.73
2019-06-07T07:56:41.654Z,8.33
2019-06-07T07:57:18.037Z,10.03
2019-06-07T07:58:01.164Z,9.00
2019-06-07T07:58:31.659Z,8.40
2019-06-07T07:59:08.230Z,11.55
2019-06-07T08:00:00.526Z,10.48
2019-06-07T08:00:50.384Z,10.45
2019-06-07T08:01:10.310Z,9.00
2019-06-07T08:01:38.035Z,8.60
2019-06-07T08:02:14.410Z,12.98
2019-06-07T08:02:53.744Z,8.38
2019-06-07T08:03:28.438Z,9.45
2019-06-07T08:04:05.302Z,9.40
2019-06-07T08:05:13.510Z,8.03
2019-06-07T08:05:33.832Z,10.65
2019-06-07T08:06:00.026Z,8.88
2019-06-07T08:06:36.121Z,8.60
2019-06-07T08:07:11.907Z,8.18
2019-06-07T08:07:53.120Z,8.68
2019-06-07T08:08:26.299Z,9.83
2019-06-07T08:09:01.886Z,8.20